Time;durP1;ratioP1;P1;durP2;ratioP2;P2;SDS_P1;SDS_P2;PMS_P1;PMS_P2;Temp;Humidity;BMP_temperature;BMP_pressure;BME280_temperature;BME280_humidity;BME280_pressure;Samples;Min_cycle;Max_cycle;Signal;HPM_P1;HPM_P2
2022/06/21 00:00:13;;;;;;;5.45;1.30;;;;;;;;;;4914396;29;20060;-69
2022/06/21 00:02:39;;;;;;;2.78;1.10;;;;;;;;;;4919636;29;20055;-69
2022/06/21 00:05:13;;;;;;;2.92;1.30;;;;;;;;;;4924272;29;20051;-69
2022/06/21 00:07:39;;;;;;;4.60;1.60;;;;;;;;;;4907645;29;20062;-69
2022/06/21 00:10:07;;;;;;;4.50;1.40;;;;;;;;;;4913796;29;20054;-69
2022/06/21 00:12:34;;;;;;;4.53;1.17;;;;;;;;;;4918946;29;20110;-69
2022/06/21 00:15:00;;;;;;;6.78;1.60;;;;;;;;;;4912934;29;20051;-69
2022/06/21 00:17:27;;;;;;;3.60;1.17;;;;;;;;;;4912747;29;20051;-69
2022/06/21 00:19:55;;;;;;;4.38;1.20;;;;;;;;;;4932953;29;20102;-69
2022/06/21 00:22:23;;;;;;;2.80;1.10;;;;;;;;;;4928335;28;20059;-69
2022/06/21 00:24:51;;;;;;;3.88;1.40;;;;;;;;;;4932947;29;20051;-68
2022/06/21 00:27:22;;;;;;;3.17;1.20;;;;;;;;;;4930121;29;20058;-69
2022/06/21 00:29:50;;;;;;;4.57;1.33;;;;;;;;;;4913925;29;20062;-69
2022/06/21 00:32:18;;;;;;;4.70;1.25;;;;;;;;;;4913231;29;20058;-69
2022/06/21 00:34:46;;;;;;;2.85;1.20;;;;;;;;;;4924803;29;20047;-69
2022/06/21 00:37:14;;;;;;;2.60;1.15;;;;;;;;;;4930814;29;20047;-69
2022/06/21 00:39:43;;;;;;;3.42;1.27;;;;;;;;;;4908799;29;20111;-69
2022/06/21 00:42:17;;;;;;;4.63;1.40;;;;;;;;;;4913726;29;20051;-69
2022/06/21 00:44:45;;;;;;;3.65;1.27;;;;;;;;;;4913251;29;20057;-69
2022/06/21 00:47:15;;;;;;;3.83;1.40;;;;;;;;;;4917406;29;20056;-69
2022/06/21 00:49:45;;;;;;;2.20;1.15;;;;;;;;;;4920645;29;20055;-69
2022/06/21 00:52:14;;;;;;;4.85;1.40;;;;;;;;;;4934241;29;20061;-69
2022/06/21 00:54:49;;;;;;;3.90;1.42;;;;;;;;;;4919688;29;20055;-69
2022/06/21 00:57:19;;;;;;;2.90;1.20;;;;;;;;;;4917974;29;20059;-69
2022/06/21 00:59:46;;;;;;;2.53;1.15;;;;;;;;;;4912872;29;20071;-69
2022/06/21 01:02:17;;;;;;;3.47;1.17;;;;;;;;;;4917069;29;20079;-69
2022/06/21 01:04:46;;;;;;;3.53;1.23;;;;;;;;;;4912400;29;20080;-69
2022/06/21 01:07:12;;;;;;;;;;;;;;;;;;4917440;29;20070;-69
2022/06/21 01:09:42;;;;;;;2.50;1.10;;;;;;;;;;4903970;29;19931;-69
2022/06/21 01:12:11;;;;;;;5.25;1.27;;;;;;;;;;4931914;29;20059;-69
2022/06/21 01:14:37;;;;;;;;;;;;;;;;;;4930902;29;20047;-69
2022/06/21 01:17:06;;;;;;;2.17;1.08;;;;;;;;;;4935696;29;19926;-68
2022/06/21 01:19:43;;;;;;;3.08;1.30;;;;;;;;;;4930328;29;20062;-69
2022/06/21 01:22:17;;;;;;;3.78;1.23;;;;;;;;;;4936164;29;20067;-69
2022/06/21 01:24:46;;;;;;;1.90;1.10;;;;;;;;;;4929447;29;20051;-69
2022/06/21 01:27:14;;;;;;;3.67;1.23;;;;;;;;;;4917080;29;20054;-69
2022/06/21 01:29:43;;;;;;;4.10;1.40;;;;;;;;;;4917371;29;20090;-68
2022/06/21 01:32:12;;;;;;;6.75;1.17;;;;;;;;;;4935553;29;20055;-68
2022/06/21 01:34:39;;;;;;;4.70;1.40;;;;;;;;;;4935030;29;20066;-69
2022/06/21 01:37:09;;;;;;;3.80;1.73;;;;;;;;;;4913866;29;20056;-69
2022/06/21 01:39:40;;;;;;;5.20;1.52;;;;;;;;;;4916392;29;20048;-69
2022/06/21 01:42:09;;;;;;;2.28;1.13;;;;;;;;;;4912142;29;20120;-68
2022/06/21 01:44:39;;;;;;;3.10;1.10;;;;;;;;;;4916258;29;20067;-69
2022/06/21 01:47:08;;;;;;;3.33;1.10;;;;;;;;;;4911540;29;20063;-68
2022/06/21 01:49:36;;;;;;;4.07;1.10;;;;;;;;;;4916475;29;20058;-69
2022/06/21 01:52:05;;;;;;;5.80;1.20;;;;;;;;;;4912208;29;20098;-68
2022/06/21 01:54:38;;;;;;;2.67;1.27;;;;;;;;;;4916918;29;20076;-68
2022/06/21 01:57:06;;;;;;;3.60;1.08;;;;;;;;;;4912712;29;20055;-69
2022/06/21 01:59:37;;;;;;;3.58;1.30;;;;;;;;;;4918763;29;20055;-68
2022/06/21 02:02:07;;;;;;;2.80;1.25;;;;;;;;;;4915218;29;20079;-69
2022/06/21 02:04:36;;;;;;;4.97;1.35;;;;;;;;;;4916297;29;20059;-68
2022/06/21 02:07:04;;;;;;;2.33;1.17;;;;;;;;;;4910473;29;20048;-68
2022/06/21 02:09:33;;;;;;;3.15;1.10;;;;;;;;;;4914376;29;20070;-68
2022/06/21 02:12:02;;;;;;;2.08;1.10;;;;;;;;;;4919023;29;20068;-68
2022/06/21 02:14:31;;;;;;;3.35;1.17;;;;;;;;;;4914789;29;20051;-68
2022/06/21 02:17:05;;;;;;;2.67;1.02;;;;;;;;;;4911280;29;20119;-68
2022/06/21 02:19:38;;;;;;;3.00;1.20;;;;;;;;;;4915887;29;20059;-69
2022/06/21 02:22:05;;;;;;;4.10;1.27;;;;;;;;;;4910787;29;20055;-69
2022/06/21 02:24:32;;;;;;;3.55;1.08;;;;;;;;;;4915585;29;20133;-69
2022/06/21 02:27:00;;;;;;;2.92;1.13;;;;;;;;;;4903729;28;20066;-68
2022/06/21 02:29:30;;;;;;;2.10;1.05;;;;;;;;;;4915443;29;20058;-68
2022/06/21 02:31:57;;;;;;;3.78;1.20;;;;;;;;;;4915045;29;20055;-68
2022/06/21 02:34:28;;;;;;;3.20;1.17;;;;;;;;;;4944192;29;20055;-68
2022/06/21 02:36:58;;;;;;;3.03;1.27;;;;;;;;;;4934330;29;20059;-68
2022/06/21 02:39:27;;;;;;;2.25;0.80;;;;;;;;;;4929824;29;20055;-68
2022/06/21 02:41:56;;;;;;;1.42;0.95;;;;;;;;;;4935632;29;20071;-68
2022/06/21 02:44:25;;;;;;;2.25;1.10;;;;;;;;;;4914915;29;20119;-68
2022/06/21 02:46:53;;;;;;;2.78;1.17;;;;;;;;;;4916179;29;20062;-68
2022/06/21 02:49:22;;;;;;;3.38;1.20;;;;;;;;;;4922706;29;20062;-69
2022/06/21 02:51:50;;;;;;;3.25;1.13;;;;;;;;;;4933818;29;20055;-69
2022/06/21 02:54:20;;;;;;;2.50;1.10;;;;;;;;;;4928498;29;20055;-69
2022/06/21 02:56:49;;;;;;;2.85;1.20;;;;;;;;;;4934567;29;20096;-68
2022/06/21 02:59:17;;;;;;;2.17;1.05;;;;;;;;;;4920710;29;20062;-69
2022/06/21 03:01:44;;;;;;;;;;;;;;;;;;4916298;29;20058;-69
2022/06/21 03:04:17;;;;;;;1.35;0.95;;;;;;;;;;4916477;29;19932;-69
2022/06/21 03:50:32;;;;;;;4.47;1.50;;;;;;;;;;4942972;29;20126;-68
2022/06/21 03:53:03;;;;;;;2.35;1.23;;;;;;;;;;4930205;29;20059;-68
2022/06/21 03:55:38;;;;;;;2.45;0.95;;;;;;;;;;4923079;29;20060;-69
2022/06/21 03:58:07;;;;;;;1.90;1.25;;;;;;;;;;4914025;29;20052;-69
2022/06/21 04:00:39;;;;;;;2.78;1.10;;;;;;;;;;4910111;28;20047;-69
2022/06/21 04:03:10;;;;;;;2.78;1.10;;;;;;;;;;4911685;29;20091;-69
2022/06/21 04:05:41;;;;;;;2.58;1.27;;;;;;;;;;4913515;29;20048;-69
2022/06/21 04:08:12;;;;;;;1.98;1.23;;;;;;;;;;4908563;29;20055;-68
2022/06/21 04:10:41;;;;;;;3.38;1.50;;;;;;;;;;4914223;29;20107;-68
2022/06/21 04:13:13;;;;;;;2.83;1.48;;;;;;;;;;4891165;29;20115;-68
2022/06/21 04:15:43;;;;;;;1.45;1.00;;;;;;;;;;4894670;29;20068;-69
2022/06/21 04:18:13;;;;;;;3.17;1.33;;;;;;;;;;4904212;29;20051;-68
2022/06/21 04:20:46;;;;;;;4.78;1.35;;;;;;;;;;4914044;29;20633;-69
2022/06/21 04:23:16;;;;;;;4.75;1.40;;;;;;;;;;4893343;29;20115;-70
2022/06/21 04:25:45;;;;;;;3.67;1.27;;;;;;;;;;4894377;29;20052;-68
2022/06/21 04:28:15;;;;;;;2.17;1.52;;;;;;;;;;4903598;29;20138;-69
2022/06/21 04:30:48;;;;;;;4.05;1.20;;;;;;;;;;4914073;29;20060;-69
2022/06/21 04:33:16;;;;;;;3.15;1.27;;;;;;;;;;4908929;29;20055;-68
2022/06/21 04:35:46;;;;;;;4.47;1.20;;;;;;;;;;4913147;29;20142;-68
2022/06/21 04:38:15;;;;;;;2.85;1.48;;;;;;;;;;4901305;29;20081;-68
2022/06/21 04:40:46;;;;;;;2.70;1.20;;;;;;;;;;4894935;29;20056;-68
2022/06/21 04:43:15;;;;;;;2.65;1.23;;;;;;;;;;4898391;29;20047;-68
2022/06/21 04:45:44;;;;;;;3.25;1.15;;;;;;;;;;4913337;29;20150;-68
2022/06/21 04:48:18;;;;;;;1.52;0.98;;;;;;;;;;4908904;29;20052;-69
2022/06/21 04:50:49;;;;;;;8.45;1.90;;;;;;;;;;4913430;29;20172;-68
2022/06/21 04:53:18;;;;;;;5.15;2.00;;;;;;;;;;4925022;29;20569;-69
2022/06/21 04:55:51;;;;;;;2.45;1.30;;;;;;;;;;4913269;29;20047;-70
2022/06/21 04:58:17;;;;;;;4.50;1.40;;;;;;;;;;4906612;29;20059;-70
2022/06/21 05:00:45;;;;;;;1.83;1.20;;;;;;;;;;4907946;29;20051;-70
2022/06/21 05:03:20;;;;;;;6.47;1.45;;;;;;;;;;4901972;29;20123;-69
2022/06/21 05:05:48;;;;;;;4.00;1.50;;;;;;;;;;4910261;29;20138;-69
2022/06/21 05:08:21;;;;;;;3.00;1.45;;;;;;;;;;4903363;29;20060;-69
2022/06/21 05:10:49;;;;;;;4.68;1.30;;;;;;;;;;4908725;29;20062;-70
2022/06/21 05:13:19;;;;;;;3.88;1.33;;;;;;;;;;4909739;29;20090;-68
2022/06/21 05:15:47;;;;;;;7.35;1.20;;;;;;;;;;4901388;29;20054;-68
2022/06/21 05:18:15;;;;;;;5.30;1.38;;;;;;;;;;4909503;29;20103;-68
2022/06/21 05:20:47;;;;;;;8.27;1.10;;;;;;;;;;4902185;29;20047;-69
2022/06/21 05:23:16;;;;;;;2.58;1.20;;;;;;;;;;4907848;29;20155;-69
2022/06/21 05:25:44;;;;;;;7.28;1.38;;;;;;;;;;4902787;29;20059;-69
2022/06/21 05:28:15;;;;;;;2.63;1.00;;;;;;;;;;4909983;29;20067;-68
2022/06/21 05:30:43;;;;;;;4.00;1.15;;;;;;;;;;4885535;29;20063;-68
2022/06/21 05:33:13;;;;;;;2.55;1.00;;;;;;;;;;4911773;29;20055;-69
2022/06/21 05:35:41;;;;;;;6.68;1.23;;;;;;;;;;4903981;29;20075;-68
2022/06/21 05:38:11;;;;;;;2.38;1.10;;;;;;;;;;4912509;29;20055;-69
2022/06/21 05:40:43;;;;;;;2.40;1.02;;;;;;;;;;4903831;29;20167;-68
2022/06/21 05:43:13;;;;;;;2.47;1.10;;;;;;;;;;4913502;29;20058;-69
2022/06/21 05:45:43;;;;;;;4.30;0.98;;;;;;;;;;4907737;29;20070;-69
2022/06/21 05:48:14;;;;;;;3.05;0.93;;;;;;;;;;4915196;29;20051;-69
2022/06/21 05:50:40;;;;;;;4.75;1.00;;;;;;;;;;4907851;29;20062;-69
2022/06/21 05:53:10;;;;;;;3.25;1.10;;;;;;;;;;4914395;29;20059;-69
2022/06/21 05:55:38;;;;;;;2.60;1.17;;;;;;;;;;4903480;29;20056;-69
2022/06/21 05:58:09;;;;;;;1.43;1.00;;;;;;;;;;4887792;29;20143;-69
2022/06/21 06:00:40;;;;;;;4.18;1.10;;;;;;;;;;4892588;29;20314;-69
2022/06/21 06:03:10;;;;;;;10.23;1.50;;;;;;;;;;4882784;29;1224870;-70
2022/06/21 06:05:37;;;;;;;5.07;0.95;;;;;;;;;;4918964;29;20067;-68
2022/06/21 06:08:08;;;;;;;2.42;0.95;;;;;;;;;;4935139;29;20124;-68
2022/06/21 06:10:35;;;;;;;3.80;0.98;;;;;;;;;;4921777;29;20059;-68
2022/06/21 06:13:04;;;;;;;7.05;1.00;;;;;;;;;;4912292;29;20055;-68
2022/06/21 06:15:34;;;;;;;4.35;0.90;;;;;;;;;;4915615;29;20074;-70
2022/06/21 06:18:06;;;;;;;2.47;0.98;;;;;;;;;;4910687;29;20059;-67
2022/06/21 06:20:35;;;;;;;6.05;1.13;;;;;;;;;;4915659;29;20060;-67
2022/06/21 06:23:03;;;;;;;2.35;1.00;;;;;;;;;;4925757;29;20051;-67
2022/06/21 06:25:32;;;;;;;2.97;0.98;;;;;;;;;;4934676;29;20134;-68
2022/06/21 06:28:02;;;;;;;4.30;1.00;;;;;;;;;;4930302;29;20134;-67
2022/06/21 06:30:32;;;;;;;3.83;1.00;;;;;;;;;;4932215;29;20065;-68
2022/06/21 06:33:04;;;;;;;3.72;0.98;;;;;;;;;;4937804;28;20051;-67
2022/06/21 06:35:30;;;;;;;4.10;1.30;;;;;;;;;;4949676;28;20059;-69
2022/06/21 06:37:57;;;;;;;5.00;0.90;;;;;;;;;;4939419;29;20047;-68
2022/06/21 06:40:26;;;;;;;3.63;1.40;;;;;;;;;;4934277;29;20054;-68
2022/06/21 06:42:57;;;;;;;3.28;1.10;;;;;;;;;;4922008;29;20048;-68
2022/06/21 06:45:28;;;;;;;1.27;0.95;;;;;;;;;;4927373;29;20187;-69
2022/06/21 06:48:01;;;;;;;4.28;1.00;;;;;;;;;;4924185;29;20225;-68
2022/06/21 06:50:32;;;;;;;9.43;1.48;;;;;;;;;;4904913;29;20138;-68
2022/06/21 06:53:01;;;;;;;9.23;1.15;;;;;;;;;;4918347;29;20050;-68
2022/06/21 06:55:31;;;;;;;2.95;1.08;;;;;;;;;;4949719;29;20054;-68
2022/06/21 06:58:00;;;;;;;3.75;0.90;;;;;;;;;;4945304;29;20079;-68
2022/06/21 07:00:29;;;;;;;4.53;1.13;;;;;;;;;;4934406;29;20055;-69
2022/06/21 07:03:00;;;;;;;2.38;0.98;;;;;;;;;;4929421;29;20134;-69
2022/06/21 07:05:29;;;;;;;1.52;0.82;;;;;;;;;;4949756;29;20059;-69
2022/06/21 07:08:01;;;;;;;3.42;1.00;;;;;;;;;;4946320;29;20055;-71
2022/06/21 07:10:30;;;;;;;2.38;0.98;;;;;;;;;;4914952;29;20055;-66
2022/06/21 07:12:57;;;;;;;3.38;1.20;;;;;;;;;;4929731;29;20065;-68
2022/06/21 07:15:29;;;;;;;2.50;1.00;;;;;;;;;;4944390;29;20054;-69
2022/06/21 07:17:56;;;;;;;3.75;1.00;;;;;;;;;;4950462;29;20047;-69
2022/06/21 07:20:24;;;;;;;6.95;1.00;;;;;;;;;;4944967;29;20055;-68
2022/06/21 07:22:52;;;;;;;4.28;1.10;;;;;;;;;;4949519;29;20094;-68
2022/06/21 07:25:25;;;;;;;4.40;1.25;;;;;;;;;;4943903;29;20088;-69
2022/06/21 07:27:53;;;;;;;4.47;1.10;;;;;;;;;;4950069;29;20106;-68
2022/06/21 07:30:22;;;;;;;6.40;1.20;;;;;;;;;;4934121;29;20055;-68
2022/06/21 07:32:51;;;;;;;3.13;0.93;;;;;;;;;;4930768;29;20181;-68
2022/06/21 07:35:21;;;;;;;7.05;1.48;;;;;;;;;;4936575;29;20089;-69
2022/06/21 07:37:51;;;;;;;1.52;0.80;;;;;;;;;;4946060;29;20058;-68
2022/06/21 07:40:22;;;;;;;3.45;1.20;;;;;;;;;;4935698;29;20051;-67
2022/06/21 07:42:55;;;;;;;4.65;0.93;;;;;;;;;;4949095;29;20110;-68
2022/06/21 07:45:26;;;;;;;3.72;1.05;;;;;;;;;;4939506;29;20062;-68
2022/06/21 07:47:57;;;;;;;5.45;1.35;;;;;;;;;;4931480;29;20050;-69
2022/06/21 07:50:26;;;;;;;3.38;1.08;;;;;;;;;;4929615;29;20057;-66
2022/06/21 07:52:55;;;;;;;5.22;1.17;;;;;;;;;;4932819;28;20058;-69
2022/06/21 07:55:24;;;;;;;6.85;1.15;;;;;;;;;;4929482;28;20078;-68
2022/06/21 07:57:53;;;;;;;2.42;0.80;;;;;;;;;;4948759;28;20059;-67
2022/06/21 08:00:22;;;;;;;3.58;1.15;;;;;;;;;;4943436;29;20059;-68
2022/06/21 08:08:24;;;;;;;4.75;1.05;;;;;;;;;;4913539;29;20059;-71
2022/06/21 08:10:53;;;;;;;2.47;0.85;;;;;;;;;;4922208;28;20047;-68
2022/06/21 08:13:21;;;;;;;7.65;1.00;;;;;;;;;;4948396;29;20055;-69
2022/06/21 08:15:51;;;;;;;4.90;1.05;;;;;;;;;;4944913;29;21015;-73
2022/06/21 08:18:22;;;;;;;1.80;0.75;;;;;;;;;;4932647;29;20051;-68
2022/06/21 08:20:57;;;;;;;6.63;0.88;;;;;;;;;;4928326;29;20066;-69
2022/06/21 08:23:28;;;;;;;5.13;1.25;;;;;;;;;;4939422;29;20051;-68
2022/06/21 08:25:58;;;;;;;4.80;1.00;;;;;;;;;;4945503;29;20047;-68
2022/06/21 08:28:30;;;;;;;1.83;1.00;;;;;;;;;;4913183;29;20064;-68
2022/06/21 08:30:57;;;;;;;3.33;0.95;;;;;;;;;;4914325;29;20055;-68
2022/06/21 08:33:25;;;;;;;2.65;0.77;;;;;;;;;;4928882;29;20118;-68
2022/06/21 08:35:57;;;;;;;7.50;1.40;;;;;;;;;;4931856;29;20051;-68
2022/06/21 08:38:26;;;;;;;2.15;0.82;;;;;;;;;;4933373;29;20058;-67
2022/06/21 08:41:09;;;;;;;4.28;0.98;;;;;;;;;;4932261;29;20146;-69
2022/06/21 08:43:50;;;;;;;3.70;0.88;;;;;;;;;;4923739;29;20122;-71
2022/06/21 08:46:36;;;;;;;6.28;2.08;;;;;;;;;;4931918;29;20051;-71
2022/06/21 08:49:21;;;;;;;2.90;1.00;;;;;;;;;;4919828;29;20088;-68
2022/06/21 08:52:17;;;;;;;3.35;0.95;;;;;;;;;;4931720;29;20063;-70
2022/06/21 08:54:49;;;;;;;1.73;0.85;;;;;;;;;;4931028;29;20061;-68
2022/06/21 08:57:20;;;;;;;2.95;0.68;;;;;;;;;;4927928;29;20059;-68
2022/06/21 08:59:52;;;;;;;0.90;0.70;;;;;;;;;;4932893;29;20082;-68
2022/06/21 09:02:23;;;;;;;4.95;0.75;;;;;;;;;;4930226;29;20118;-69
2022/06/21 09:04:59;;;;;;;7.55;0.90;;;;;;;;;;4924554;29;20065;-68
2022/06/21 09:07:37;;;;;;;2.60;0.90;;;;;;;;;;4934455;29;20063;-68
2022/06/21 09:10:16;;;;;;;4.20;1.00;;;;;;;;;;4914537;29;20059;-68
2022/06/21 09:12:50;;;;;;;2.15;0.90;;;;;;;;;;4915478;29;20051;-68
2022/06/21 09:15:24;;;;;;;2.28;0.75;;;;;;;;;;4916776;29;20063;-68
2022/06/21 09:17:54;;;;;;;2.30;1.00;;;;;;;;;;4917082;29;20067;-68
2022/06/21 09:20:26;;;;;;;3.25;1.00;;;;;;;;;;4949571;29;20055;-68
2022/06/21 09:23:04;;;;;;;2.85;0.73;;;;;;;;;;4951382;29;20117;-67
2022/06/21 09:25:37;;;;;;;1.37;0.73;;;;;;;;;;4945022;29;20065;-68
2022/06/21 09:28:07;;;;;;;1.83;0.73;;;;;;;;;;4932879;29;20063;-67
2022/06/21 09:30:38;;;;;;;3.08;0.80;;;;;;;;;;4932185;29;20050;-67
2022/06/21 09:33:09;;;;;;;1.83;0.70;;;;;;;;;;4934974;29;20059;-68
2022/06/21 09:35:41;;;;;;;6.00;0.90;;;;;;;;;;4943905;29;20067;-67
2022/06/21 09:38:25;;;;;;;2.28;0.80;;;;;;;;;;4945102;29;20047;-67
2022/06/21 09:40:57;;;;;;;3.58;1.02;;;;;;;;;;4944916;29;20051;-67
2022/06/21 09:43:30;;;;;;;3.67;0.88;;;;;;;;;;4951051;29;20059;-67
2022/06/21 09:46:01;;;;;;;2.53;0.80;;;;;;;;;;4933719;29;20070;-67
2022/06/21 09:48:30;;;;;;;2.33;0.77;;;;;;;;;;4935582;29;20051;-67
2022/06/21 09:51:00;;;;;;;3.30;0.90;;;;;;;;;;4931742;29;20047;-67
2022/06/21 09:53:33;;;;;;;4.53;0.88;;;;;;;;;;4934657;29;20058;-67
2022/06/21 09:56:05;;;;;;;4.32;0.90;;;;;;;;;;4918252;29;20062;-67
2022/06/21 09:58:44;;;;;;;0.75;0.45;;;;;;;;;;4907160;29;20048;-67
2022/06/21 10:01:13;;;;;;;2.95;0.80;;;;;;;;;;4922906;29;20066;-67
2022/06/21 10:03:44;;;;;;;2.58;0.60;;;;;;;;;;4915773;29;20059;-68
2022/06/21 10:06:14;;;;;;;3.53;0.90;;;;;;;;;;4931988;29;20055;-67
2022/06/21 10:08:56;;;;;;;3.67;0.93;;;;;;;;;;4951106;29;20054;-67
2022/06/21 10:11:29;;;;;;;2.95;0.70;;;;;;;;;;4930346;29;20067;-67
2022/06/21 10:14:20;;;;;;;2.60;0.65;;;;;;;;;;4915369;29;20052;-67
2022/06/21 10:17:08;;;;;;;1.52;0.68;;;;;;;;;;4912139;29;20051;-67
2022/06/21 10:19:45;;;;;;;2.03;0.73;;;;;;;;;;4916266;29;20070;-67
2022/06/21 10:22:20;;;;;;;2.80;0.80;;;;;;;;;;4937136;29;20055;-67
2022/06/21 10:25:08;;;;;;;4.10;0.73;;;;;;;;;;4950251;29;20051;-67
2022/06/21 10:27:50;;;;;;;5.55;0.80;;;;;;;;;;4908831;29;20063;-67
2022/06/21 10:30:26;;;;;;;6.15;1.05;;;;;;;;;;4935003;29;20059;-68
2022/06/21 10:33:02;;;;;;;0.90;0.60;;;;;;;;;;4931031;29;20127;-68
2022/06/21 10:35:34;;;;;;;2.25;0.80;;;;;;;;;;4934158;29;20145;-68
2022/06/21 10:38:08;;;;;;;2.08;0.85;;;;;;;;;;4915343;29;20051;-68
2022/06/21 10:40:40;;;;;;;4.05;0.80;;;;;;;;;;4915438;29;20059;-68
2022/06/21 10:43:20;;;;;;;3.25;0.98;;;;;;;;;;4927005;29;20063;-68
2022/06/21 10:45:49;;;;;;;1.40;0.80;;;;;;;;;;4934046;29;20138;-69
2022/06/21 10:48:30;;;;;;;1.73;0.70;;;;;;;;;;4941731;29;20063;-67
2022/06/21 10:51:01;;;;;;;1.52;0.80;;;;;;;;;;4946757;29;20134;-67
2022/06/21 10:53:42;;;;;;;3.25;0.80;;;;;;;;;;4933249;29;20106;-68
2022/06/21 10:59:09;;;;;;;1.70;0.90;;;;;;;;;;4943329;28;20090;-68
2022/06/21 11:01:41;;;;;;;2.33;0.80;;;;;;;;;;4949285;29;20135;-68
2022/06/21 11:04:15;;;;;;;2.95;1.00;;;;;;;;;;4945186;29;20059;-67
2022/06/21 11:06:46;;;;;;;3.05;0.80;;;;;;;;;;4949720;29;20051;-67
2022/06/21 11:09:15;;;;;;;2.03;0.70;;;;;;;;;;4917597;29;20078;-67
2022/06/21 11:11:46;;;;;;;6.32;1.10;;;;;;;;;;4925487;29;20073;-67
2022/06/21 11:14:21;;;;;;;2.38;0.68;;;;;;;;;;4929738;29;20058;-67
2022/06/21 11:16:52;;;;;;;1.13;0.60;;;;;;;;;;4933703;29;20058;-68
2022/06/21 11:19:22;;;;;;;0.68;0.50;;;;;;;;;;4928985;29;20051;-67
2022/06/21 11:21:53;;;;;;;15.40;2.75;;;;;;;;;;4930002;29;20059;-67
2022/06/21 11:24:26;;;;;;;4.40;0.98;;;;;;;;;;4929863;29;20083;-68
2022/06/21 11:27:00;;;;;;;1.30;0.85;;;;;;;;;;4933018;29;20086;-68
2022/06/21 11:29:33;;;;;;;1.52;0.70;;;;;;;;;;4936702;29;20055;-68
2022/06/21 11:32:04;;;;;;;2.03;0.77;;;;;;;;;;4949255;29;20051;-68
2022/06/21 11:34:37;;;;;;;3.80;0.90;;;;;;;;;;4936452;29;20065;-69
2022/06/21 11:37:09;;;;;;;3.10;0.98;;;;;;;;;;4932863;29;20055;-70
2022/06/21 11:39:37;;;;;;;1.77;0.80;;;;;;;;;;4929455;29;20059;-67
2022/06/21 11:42:14;;;;;;;1.67;0.88;;;;;;;;;;4932857;29;20051;-67
2022/06/21 11:44:51;;;;;;;1.97;0.90;;;;;;;;;;4918522;29;20150;-67
2022/06/21 11:47:23;;;;;;;7.85;1.08;;;;;;;;;;4913735;29;20084;-67
2022/06/21 11:49:55;;;;;;;2.78;0.90;;;;;;;;;;4918114;29;20047;-66
2022/06/21 11:52:45;;;;;;;4.68;1.20;;;;;;;;;;4933273;29;20062;-67
2022/06/21 11:55:21;;;;;;;3.17;0.85;;;;;;;;;;4915229;29;20058;-68
2022/06/21 11:57:50;;;;;;;1.83;0.90;;;;;;;;;;4933368;29;20059;-68
2022/06/21 12:00:16;;;;;;;;;;;;;;;;;;4934984;29;20063;-68
2022/06/21 12:02:47;;;;;;;2.30;0.90;;;;;;;;;;4948937;29;19949;-67
2022/06/21 12:05:20;;;;;;;2.58;0.90;;;;;;;;;;4944168;29;20058;-67
2022/06/21 12:07:50;;;;;;;3.40;1.20;;;;;;;;;;4949078;29;20063;-66
2022/06/21 12:10:19;;;;;;;3.70;0.95;;;;;;;;;;4943329;29;20051;-67
2022/06/21 12:12:49;;;;;;;3.35;1.10;;;;;;;;;;4933067;29;20059;-67
2022/06/21 12:15:23;;;;;;;4.75;0.80;;;;;;;;;;4929311;29;20047;-67
2022/06/21 12:17:53;;;;;;;4.43;0.80;;;;;;;;;;4932244;29;20055;-67
2022/06/21 12:20:23;;;;;;;3.22;1.00;;;;;;;;;;4919637;29;20050;-68
2022/06/21 12:22:52;;;;;;;1.27;0.68;;;;;;;;;;4948826;29;20051;-67
2022/06/21 12:25:21;;;;;;;1.73;0.80;;;;;;;;;;4927887;29;20109;-66
2022/06/21 12:27:48;;;;;;;2.28;0.73;;;;;;;;;;4933027;29;20074;-66
2022/06/21 12:30:17;;;;;;;2.75;0.90;;;;;;;;;;4932555;29;20047;-66
2022/06/21 12:32:44;;;;;;;1.50;0.70;;;;;;;;;;4944121;29;20047;-67
2022/06/21 12:35:15;;;;;;;3.00;0.82;;;;;;;;;;4948434;29;20145;-67
2022/06/21 12:37:44;;;;;;;3.38;0.93;;;;;;;;;;4924951;29;20062;-67
2022/06/21 12:40:12;;;;;;;;;;;;;;;;;;4915332;29;20052;-67
2022/06/21 12:42:47;;;;;;;3.20;0.80;;;;;;;;;;4927622;29;19929;-67
2022/06/21 12:45:27;;;;;;;3.80;0.68;;;;;;;;;;4934747;29;20062;-67
2022/06/21 12:48:04;;;;;;;3.35;0.77;;;;;;;;;;4932664;29;20086;-67
2022/06/21 12:50:45;;;;;;;1.40;0.65;;;;;;;;;;4935201;29;20066;-67
2022/06/21 12:53:22;;;;;;;1.35;0.70;;;;;;;;;;4947559;29;20130;-67
2022/06/21 12:55:54;;;;;;;1.77;0.80;;;;;;;;;;4936471;29;20051;-67
2022/06/21 12:58:32;;;;;;;3.00;0.90;;;;;;;;;;4944404;29;20063;-67
2022/06/21 13:01:00;;;;;;;3.05;0.52;;;;;;;;;;4951889;29;20118;-65
2022/06/21 13:03:48;;;;;;;2.97;0.90;;;;;;;;;;4946510;29;20059;-68
2022/06/21 13:06:31;;;;;;;3.03;0.80;;;;;;;;;;4927692;29;20051;-67
2022/06/21 13:09:06;;;;;;;2.05;0.60;;;;;;;;;;4947538;29;20058;-67
2022/06/21 13:11:40;;;;;;;5.32;0.75;;;;;;;;;;4943379;28;20044;-67
2022/06/21 13:14:19;;;;;;;1.67;0.65;;;;;;;;;;4927839;29;20062;-67
2022/06/21 13:16:51;;;;;;;2.08;0.80;;;;;;;;;;4935340;29;20047;-67
2022/06/21 13:19:33;;;;;;;1.45;0.80;;;;;;;;;;4944719;28;20065;-68
2022/06/21 13:22:10;;;;;;;1.10;0.50;;;;;;;;;;4952242;29;20058;-67
2022/06/21 13:24:46;;;;;;;4.35;0.93;;;;;;;;;;4949539;28;20055;-67
2022/06/21 13:27:21;;;;;;;3.28;0.77;;;;;;;;;;4935304;29;20066;-67
2022/06/21 13:30:06;;;;;;;2.13;0.70;;;;;;;;;;4928119;29;20063;-67
2022/06/21 13:32:35;;;;;;;3.22;0.88;;;;;;;;;;4931799;29;20060;-67
2022/06/21 13:35:06;;;;;;;3.63;0.90;;;;;;;;;;4945487;29;20079;-66
2022/06/21 13:37:35;;;;;;;2.33;0.73;;;;;;;;;;4950448;29;20055;-67
2022/06/21 13:40:07;;;;;;;2.00;0.70;;;;;;;;;;4931428;29;20051;-67
2022/06/21 13:42:37;;;;;;;4.85;1.00;;;;;;;;;;4935237;29;20059;-67
2022/06/21 13:45:08;;;;;;;4.10;0.80;;;;;;;;;;4941581;29;20051;-66
2022/06/21 13:47:40;;;;;;;4.35;0.80;;;;;;;;;;4951480;29;20066;-67
2022/06/21 13:50:14;;;;;;;5.47;0.73;;;;;;;;;;4937739;29;20055;-67
2022/06/21 13:52:43;;;;;;;2.55;0.70;;;;;;;;;;4934552;29;20061;-66
2022/06/21 13:55:16;;;;;;;4.47;0.90;;;;;;;;;;4928762;29;20102;-67
2022/06/21 13:57:50;;;;;;;4.43;0.85;;;;;;;;;;4933453;29;20062;-67
2022/06/21 14:00:18;;;;;;;4.32;0.85;;;;;;;;;;4930795;29;20114;-68
2022/06/21 14:02:49;;;;;;;3.15;0.80;;;;;;;;;;4934931;29;20069;-67
2022/06/21 14:05:18;;;;;;;8.35;1.00;;;;;;;;;;4931179;29;20059;-67
2022/06/21 14:07:47;;;;;;;4.30;0.82;;;;;;;;;;4935229;29;20140;-68
2022/06/21 14:10:19;;;;;;;2.58;0.60;;;;;;;;;;4934832;29;20087;-68
2022/06/21 14:12:52;;;;;;;2.33;0.80;;;;;;;;;;4935432;29;20148;-67
2022/06/21 14:15:21;;;;;;;4.15;0.95;;;;;;;;;;4934413;29;20057;-67
2022/06/21 14:17:51;;;;;;;1.88;0.70;;;;;;;;;;4951115;29;20061;-67
2022/06/21 14:20:20;;;;;;;2.50;0.80;;;;;;;;;;4944730;29;20054;-67
2022/06/21 14:22:52;;;;;;;3.55;0.90;;;;;;;;;;4934819;29;20062;-68
2022/06/21 14:25:25;;;;;;;1.50;0.70;;;;;;;;;;4927833;29;20052;-67
2022/06/21 14:27:54;;;;;;;2.58;0.80;;;;;;;;;;4923517;29;20055;-68
2022/06/21 14:30:23;;;;;;;1.45;0.70;;;;;;;;;;4923685;29;20113;-68
2022/06/21 14:32:52;;;;;;;1.75;0.70;;;;;;;;;;4931801;29;20052;-68
2022/06/21 14:35:21;;;;;;;1.77;0.60;;;;;;;;;;4924883;29;20057;-68
2022/06/21 14:37:52;;;;;;;2.08;0.68;;;;;;;;;;4927967;29;20059;-68
2022/06/21 14:40:24;;;;;;;1.48;0.60;;;;;;;;;;4929423;29;20075;-68
2022/06/21 14:42:53;;;;;;;3.70;0.90;;;;;;;;;;4925479;29;20054;-66
2022/06/21 14:45:22;;;;;;;3.53;0.80;;;;;;;;;;4929900;29;20120;-67
2022/06/21 14:47:51;;;;;;;1.48;0.60;;;;;;;;;;4925718;29;20066;-67
2022/06/21 14:50:21;;;;;;;1.88;0.75;;;;;;;;;;4928830;29;20063;-68
2022/06/21 14:53:01;;;;;;;2.22;0.70;;;;;;;;;;4925982;29;20059;-67
2022/06/21 14:55:38;;;;;;;4.22;0.73;;;;;;;;;;4930401;29;20055;-67
2022/06/21 14:58:09;;;;;;;3.53;0.80;;;;;;;;;;4920157;29;20055;-67
2022/06/21 15:00:42;;;;;;;1.60;0.68;;;;;;;;;;4930521;29;20051;-67
2022/06/21 15:03:13;;;;;;;2.05;0.80;;;;;;;;;;4924262;29;20066;-68
2022/06/21 15:05:45;;;;;;;1.67;0.80;;;;;;;;;;4929865;29;20060;-67
2022/06/21 15:08:13;;;;;;;1.90;0.65;;;;;;;;;;4927569;29;20062;-68
2022/06/21 15:10:44;;;;;;;2.67;0.70;;;;;;;;;;4926721;29;20062;-67
2022/06/21 15:13:20;;;;;;;1.88;0.75;;;;;;;;;;4923036;29;20075;-67
2022/06/21 15:15:49;;;;;;;0.82;0.50;;;;;;;;;;4928264;29;20340;-67
2022/06/21 15:18:20;;;;;;;0.75;0.57;;;;;;;;;;4927753;29;20051;-67
2022/06/21 15:20:49;;;;;;;1.75;0.70;;;;;;;;;;4946209;29;20047;-67
2022/06/21 15:23:19;;;;;;;0.70;0.60;;;;;;;;;;4923549;29;20136;-67
2022/06/21 15:25:51;;;;;;;2.40;0.70;;;;;;;;;;4927758;29;20051;-67
2022/06/21 15:28:20;;;;;;;3.67;1.05;;;;;;;;;;4922471;29;20062;-68
2022/06/21 15:30:49;;;;;;;2.63;0.73;;;;;;;;;;4927865;29;20110;-67
2022/06/21 15:33:19;;;;;;;3.88;0.63;;;;;;;;;;4923325;29;20074;-67
2022/06/21 15:35:51;;;;;;;1.75;0.90;;;;;;;;;;4926093;29;20059;-67
2022/06/21 15:38:19;;;;;;;2.42;0.65;;;;;;;;;;4924818;29;20050;-67
2022/06/21 15:40:51;;;;;;;1.48;0.80;;;;;;;;;;4930780;29;20106;-67
2022/06/21 15:43:23;;;;;;;0.88;0.60;;;;;;;;;;4924155;29;20058;-67
2022/06/21 15:45:53;;;;;;;2.30;0.70;;;;;;;;;;4910255;29;20058;-67
2022/06/21 15:51:09;;;;;;;3.15;1.00;;;;;;;;;;4928814;29;20058;-66
2022/06/21 15:53:43;;;;;;;0.95;0.60;;;;;;;;;;4924402;29;20066;-66
2022/06/21 15:56:16;;;;;;;2.35;0.88;;;;;;;;;;4929215;29;20054;-66
2022/06/21 15:58:49;;;;;;;2.00;0.73;;;;;;;;;;4924058;29;20066;-66
2022/06/21 16:01:21;;;;;;;3.08;0.90;;;;;;;;;;4926358;29;20055;-67
2022/06/21 16:03:57;;;;;;;5.80;0.90;;;;;;;;;;4924026;29;20055;-67